createdAt,value
2023-04-16T00:02:14.826Z,21.90
2023-04-16T00:04:42.242Z,20.80
2023-04-16T00:07:09.482Z,49.90
2023-04-16T00:09:36.608Z,23.90
2023-04-16T00:12:04.764Z,23.97
2023-04-16T00:14:32.007Z,28.47
2023-04-16T00:16:59.318Z,28.53
2023-04-16T00:19:26.678Z,29.03
2023-04-16T00:21:54.074Z,29.83
2023-04-16T00:24:21.333Z,28.10
2023-04-16T00:26:48.445Z,30.03
2023-04-16T00:29:15.742Z,29.37
2023-04-16T00:31:42.950Z,29.50
2023-04-16T00:34:10.363Z,28.20
2023-04-16T00:36:37.525Z,31.13
2023-04-16T00:39:05.392Z,28.77
2023-04-16T00:41:32.635Z,31.03
2023-04-16T00:43:59.765Z,25.87
2023-04-16T00:46:27.431Z,29.30
2023-04-16T00:48:55.319Z,31.10
2023-04-16T00:51:22.950Z,27.23
2023-04-16T00:53:50.937Z,27.30
2023-04-16T00:56:20.536Z,26.80
2023-04-16T00:58:49.666Z,30.73
2023-04-16T01:01:16.990Z,33.53
2023-04-16T01:03:49.314Z,30.80
2023-04-16T01:06:18.698Z,32.50
2023-04-16T01:08:48.414Z,31.17
2023-04-16T01:11:16.522Z,27.20
2023-04-16T01:13:43.716Z,29.00
2023-04-16T01:16:13.201Z,25.30
2023-04-16T01:18:40.784Z,24.73
2023-04-16T01:21:08.301Z,24.00
2023-04-16T01:23:35.558Z,23.17
2023-04-16T01:26:02.936Z,23.67
2023-04-16T01:28:30.134Z,22.27
2023-04-16T01:30:57.415Z,25.50
2023-04-16T01:33:37.606Z,20.57
2023-04-16T01:36:04.969Z,23.37
2023-04-16T01:38:32.198Z,22.87
2023-04-16T01:40:59.758Z,20.10
2023-04-16T01:43:27.024Z,21.20
2023-04-16T01:46:12.905Z,24.20
2023-04-16T01:48:40.083Z,23.93
2023-04-16T01:51:07.235Z,21.90
2023-04-16T01:53:35.811Z,25.03
2023-04-16T01:56:05.541Z,20.43
2023-04-16T01:58:33.968Z,28.73
2023-04-16T02:01:01.310Z,21.20
2023-04-16T02:03:28.874Z,21.43
2023-04-16T02:05:56.173Z,21.23
2023-04-16T02:08:23.819Z,21.67
2023-04-16T02:10:51.231Z,24.70
2023-04-16T02:13:18.470Z,28.53
2023-04-16T02:15:49.429Z,23.37
2023-04-16T02:18:21.359Z,25.37
2023-04-16T02:20:49.888Z,23.17
2023-04-16T02:23:18.262Z,25.27
2023-04-16T02:25:47.358Z,26.23
2023-04-16T02:28:17.507Z,23.20
2023-04-16T02:30:46.630Z,22.97
2023-04-16T02:33:16.350Z,26.70
2023-04-16T02:35:54.023Z,24.20
2023-04-16T02:38:21.632Z,26.17
2023-04-16T02:40:48.947Z,26.30
2023-04-16T02:43:17.357Z,24.43
2023-04-16T02:45:44.903Z,25.63
2023-04-16T02:48:12.273Z,30.60
2023-04-16T02:50:39.459Z,28.07
2023-04-16T02:53:07.846Z,27.30
2023-04-16T02:55:35.114Z,27.00
2023-04-16T02:58:02.232Z,28.40
2023-04-16T03:00:29.608Z,27.80
2023-04-16T03:02:57.239Z,25.53
2023-04-16T03:05:24.697Z,28.73
2023-04-16T03:07:56.582Z,24.17
2023-04-16T03:10:24.267Z,25.67
2023-04-16T03:12:51.564Z,25.67
2023-04-16T03:15:18.759Z,26.43
2023-04-16T03:17:46.128Z,27.73
2023-04-16T03:20:14.472Z,27.07
2023-04-16T03:22:41.959Z,27.83
2023-04-16T03:25:09.677Z,30.47
2023-04-16T03:27:37.037Z,24.00
2023-04-16T03:30:05.765Z,26.60
2023-04-16T03:32:34.984Z,22.20
2023-04-16T03:35:09.026Z,27.00
2023-04-16T03:37:37.537Z,23.40
2023-04-16T03:40:06.977Z,24.17
2023-04-16T03:42:34.194Z,24.23
2023-04-16T03:45:02.270Z,27.37
2023-04-16T03:47:29.534Z,27.63
2023-04-16T03:50:00.544Z,19.93
2023-04-16T03:52:28.573Z,25.90
2023-04-16T03:54:56.685Z,25.77
2023-04-16T03:57:30.468Z,23.23
2023-04-16T04:00:04.357Z,24.33
2023-04-16T04:02:42.025Z,25.00
2023-04-16T04:05:16.834Z,22.87
2023-04-16T04:07:45.304Z,21.70
2023-04-16T04:10:14.292Z,28.33
2023-04-16T04:12:43.044Z,25.13
2023-04-16T04:15:11.679Z,21.97
2023-04-16T04:17:38.959Z,22.50
2023-04-16T04:20:07.147Z,25.60
2023-04-16T04:22:34.466Z,24.07
2023-04-16T04:25:01.725Z,23.33
2023-04-16T04:27:31.095Z,25.00
2023-04-16T04:29:58.880Z,27.83
2023-04-16T04:32:26.138Z,27.50
2023-04-16T04:34:53.556Z,29.80
2023-04-16T04:37:21.105Z,26.90
2023-04-16T04:39:48.444Z,30.53
2023-04-16T04:42:18.659Z,25.60
2023-04-16T04:44:46.724Z,24.83
2023-04-16T04:47:15.209Z,25.20
2023-04-16T04:49:42.444Z,24.90
2023-04-16T04:52:09.695Z,22.53
2023-04-16T04:54:37.144Z,22.87
2023-04-16T04:57:05.816Z,19.73
2023-04-16T04:59:33.196Z,20.47
2023-04-16T05:02:03.459Z,22.10
2023-04-16T05:04:31.666Z,19.53
2023-04-16T05:06:59.031Z,20.87
2023-04-16T05:09:26.477Z,19.80
2023-04-16T05:11:53.709Z,20.50
2023-04-16T05:14:21.243Z,19.77
2023-04-16T05:16:48.530Z,17.63
2023-04-16T05:19:17.435Z,20.03
2023-04-16T05:21:44.608Z,18.40
2023-04-16T05:24:13.071Z,21.00
2023-04-16T05:26:42.178Z,19.13
2023-04-16T05:29:09.512Z,16.27
2023-04-16T05:31:36.895Z,20.53
2023-04-16T05:34:04.426Z,17.90
2023-04-16T05:36:31.692Z,19.27
2023-04-16T05:38:59.145Z,17.07
2023-04-16T05:41:26.269Z,22.00
2023-04-16T05:43:53.393Z,21.20
2023-04-16T05:46:20.632Z,20.97
2023-04-16T05:48:47.693Z,25.40
2023-04-16T05:51:15.425Z,20.97
2023-04-16T05:53:43.193Z,23.60
2023-04-16T05:56:10.671Z,24.13
2023-04-16T05:58:38.043Z,18.60
2023-04-16T06:01:05.420Z,17.70
2023-04-16T06:03:32.712Z,18.70
2023-04-16T06:05:59.937Z,17.60
2023-04-16T06:08:27.397Z,18.20
2023-04-16T06:10:54.589Z,19.87
2023-04-16T06:13:21.822Z,17.70
2023-04-16T06:15:49.130Z,16.87
2023-04-16T06:18:16.336Z,16.40
2023-04-16T06:20:43.509Z,21.23
2023-04-16T06:23:10.911Z,19.50
2023-04-16T06:25:38.152Z,20.70
2023-04-16T06:28:05.629Z,16.07
2023-04-16T06:30:32.857Z,17.30
2023-04-16T06:33:00.176Z,17.90
2023-04-16T06:35:27.292Z,19.90
2023-04-16T06:37:54.556Z,19.17
2023-04-16T06:40:21.783Z,14.90
2023-04-16T06:42:49.021Z,15.43
2023-04-16T06:45:16.370Z,16.63
2023-04-16T06:47:43.759Z,17.43
2023-04-16T06:50:11.331Z,15.20
2023-04-16T06:52:38.502Z,16.57
2023-04-16T06:55:08.330Z,22.03
2023-04-16T06:57:37.490Z,25.80
2023-04-16T07:00:05.552Z,25.83
2023-04-16T07:02:32.994Z,25.10
2023-04-16T07:05:00.611Z,23.53
2023-04-16T07:07:27.693Z,21.07
2023-04-16T07:09:54.838Z,18.63
2023-04-16T07:12:22.832Z,18.10
2023-04-16T07:14:50.303Z,17.07
2023-04-16T07:17:17.385Z,19.23
2023-04-16T07:19:44.781Z,20.17
2023-04-16T07:22:11.935Z,18.50
2023-04-16T07:24:39.004Z,16.87
2023-04-16T07:27:06.195Z,18.77
2023-04-16T07:29:33.389Z,19.13
2023-04-16T07:32:00.673Z,15.47
2023-04-16T07:34:27.902Z,14.60
2023-04-16T07:36:54.968Z,15.20
2023-04-16T07:39:22.082Z,12.90
2023-04-16T07:41:49.367Z,24.37
2023-04-16T07:44:16.865Z,14.13
2023-04-16T07:46:47.378Z,13.00
2023-04-16T07:49:15.571Z,15.37
2023-04-16T07:51:42.881Z,17.47
2023-04-16T07:54:11.091Z,15.83
2023-04-16T07:56:38.314Z,16.30
2023-04-16T07:59:21.214Z,14.80
2023-04-16T08:01:50.768Z,16.20
2023-04-16T08:04:23.324Z,19.20
2023-04-16T08:06:54.472Z,16.40
2023-04-16T08:09:30.416Z,16.13
2023-04-16T08:11:57.619Z,16.60
2023-04-16T08:14:24.763Z,15.03
2023-04-16T08:16:52.273Z,14.30
2023-04-16T08:19:19.612Z,18.10
2023-04-16T08:21:47.396Z,15.30
2023-04-16T08:24:14.566Z,18.27
2023-04-16T08:26:41.750Z,15.57
2023-04-16T08:29:09.117Z,15.13
2023-04-16T08:31:36.504Z,15.23
2023-04-16T08:34:03.832Z,17.63
2023-04-16T08:36:31.502Z,16.47
2023-04-16T08:38:58.821Z,16.70
2023-04-16T08:41:28.156Z,16.07
2023-04-16T08:43:57.773Z,18.90
2023-04-16T08:46:26.841Z,18.50
2023-04-16T08:48:58.116Z,18.40
2023-04-16T08:51:30.204Z,22.93
2023-04-16T08:54:05.525Z,21.97
2023-04-16T08:56:37.197Z,15.40
2023-04-16T08:59:05.691Z,17.20
2023-04-16T09:01:34.065Z,17.67
2023-04-16T09:04:05.340Z,16.47
2023-04-16T09:06:36.780Z,14.53
2023-04-16T09:09:06.262Z,18.17
2023-04-16T09:11:39.844Z,16.73
2023-04-16T09:14:11.442Z,15.10
2023-04-16T09:16:42.828Z,14.37
2023-04-16T09:19:10.296Z,15.60
2023-04-16T09:21:39.005Z,14.10
2023-04-16T09:24:06.885Z,11.73
2023-04-16T09:26:34.522Z,13.83
2023-04-16T09:29:02.070Z,10.83
2023-04-16T09:31:29.783Z,11.77
2023-04-16T09:34:15.139Z,11.67
2023-04-16T09:36:42.585Z,11.53
2023-04-16T09:39:22.895Z,12.80
2023-04-16T09:41:55.159Z,11.10
2023-04-16T09:44:37.160Z,10.93
2023-04-16T09:47:09.828Z,12.37
2023-04-16T09:49:43.140Z,10.70
2023-04-16T09:52:17.965Z,11.30
2023-04-16T09:54:53.626Z,15.97
2023-04-16T09:57:25.267Z,10.93
2023-04-16T10:00:07.812Z,12.93
2023-04-16T10:02:39.012Z,10.33
2023-04-16T10:05:07.097Z,9.20
2023-04-16T10:07:36.628Z,11.13
2023-04-16T10:10:05.065Z,12.60
2023-04-16T10:12:35.751Z,8.60
2023-04-16T10:15:02.982Z,11.13
2023-04-16T10:17:31.632Z,9.83
2023-04-16T10:19:59.135Z,10.27
2023-04-16T10:22:26.708Z,8.00
2023-04-16T10:24:54.803Z,6.30
2023-04-16T10:27:26.483Z,6.50
2023-04-16T10:29:53.656Z,12.33
2023-04-16T10:32:21.917Z,6.90
2023-04-16T10:34:49.228Z,7.80
2023-04-16T10:37:18.115Z,6.17
2023-04-16T10:39:45.331Z,6.53
2023-04-16T10:42:13.499Z,5.60
2023-04-16T10:44:44.325Z,14.27
2023-04-16T10:47:14.381Z,7.43
2023-04-16T10:49:43.603Z,8.27
2023-04-16T10:52:17.334Z,7.33
2023-04-16T10:54:44.994Z,9.17
2023-04-16T10:57:20.863Z,7.30
2023-04-16T10:59:49.500Z,5.60
2023-04-16T11:02:18.845Z,6.17
2023-04-16T11:04:48.568Z,6.00
2023-04-16T11:07:19.157Z,6.17
2023-04-16T11:10:08.143Z,4.67
2023-04-16T11:12:40.517Z,4.50
2023-04-16T11:15:16.510Z,5.87
2023-04-16T11:17:50.926Z,5.87
2023-04-16T11:20:25.792Z,7.90
2023-04-16T11:22:56.095Z,5.67
2023-04-16T11:25:31.887Z,4.10
2023-04-16T11:27:59.433Z,3.57
2023-04-16T11:30:36.358Z,3.70
2023-04-16T11:33:14.255Z,3.30
2023-04-16T11:35:43.406Z,2.80
2023-04-16T11:38:10.498Z,3.17
2023-04-16T11:40:37.683Z,2.73
2023-04-16T11:43:14.935Z,3.63
2023-04-16T11:45:56.527Z,2.80
2023-04-16T11:48:23.594Z,3.77
2023-04-16T11:50:58.877Z,3.67
2023-04-16T11:53:26.180Z,3.20
2023-04-16T11:55:53.314Z,3.43
2023-04-16T11:58:22.294Z,3.13
2023-04-16T12:00:53.378Z,3.63
2023-04-16T12:03:39.556Z,5.00
2023-04-16T12:06:10.633Z,2.70
2023-04-16T12:08:37.878Z,3.70
2023-04-16T12:11:05.524Z,4.50
2023-04-16T12:13:39.740Z,3.10
2023-04-16T12:16:21.114Z,7.50
2023-04-16T12:19:04.108Z,2.50
2023-04-16T12:21:51.184Z,2.60
2023-04-16T12:24:20.903Z,2.43
2023-04-16T12:26:56.187Z,3.37
2023-04-16T12:29:24.844Z,2.40
2023-04-16T12:31:53.527Z,2.67
2023-04-16T12:34:22.233Z,2.33
2023-04-16T12:37:10.668Z,3.23
2023-04-16T12:39:37.842Z,3.67
2023-04-16T12:42:06.446Z,3.53
2023-04-16T12:44:33.524Z,3.63
2023-04-16T12:47:00.877Z,2.53
2023-04-16T12:49:28.077Z,3.50
2023-04-16T12:51:55.386Z,3.27
2023-04-16T12:54:22.694Z,3.07
2023-04-16T12:56:50.022Z,2.63
2023-04-16T12:59:17.946Z,2.27
2023-04-16T13:01:47.400Z,3.27
2023-04-16T13:04:19.205Z,5.67
2023-04-16T13:06:46.702Z,4.60
2023-04-16T13:09:14.390Z,6.47
2023-04-16T13:11:41.910Z,5.40
2023-04-16T13:14:10.805Z,4.47
2023-04-16T13:16:38.942Z,4.30
2023-04-16T13:19:06.543Z,4.30
2023-04-16T13:21:41.640Z,4.67
2023-04-16T13:24:09.373Z,5.47
2023-04-16T13:26:36.755Z,4.43
2023-04-16T13:29:04.045Z,4.60
2023-04-16T13:31:31.215Z,4.33
2023-04-16T13:33:58.824Z,5.90
2023-04-16T13:36:27.614Z,3.33
2023-04-16T13:38:55.271Z,3.90
2023-04-16T13:41:22.495Z,6.80
2023-04-16T13:43:49.931Z,6.93
2023-04-16T13:46:17.361Z,5.60
2023-04-16T13:48:45.295Z,6.20
2023-04-16T13:51:13.959Z,5.80
2023-04-16T13:53:42.861Z,8.30
2023-04-16T13:56:11.360Z,6.23
2023-04-16T13:58:38.979Z,6.87
2023-04-16T14:01:06.359Z,6.33
2023-04-16T14:03:36.202Z,7.30
2023-04-16T14:06:04.646Z,6.53
2023-04-16T14:08:32.333Z,6.90
2023-04-16T14:11:00.708Z,5.57
2023-04-16T14:13:30.722Z,5.60
2023-04-16T14:15:58.021Z,5.67
2023-04-16T14:18:25.816Z,5.43
2023-04-16T14:20:52.898Z,5.40
2023-04-16T14:23:20.054Z,6.60
2023-04-16T14:25:47.487Z,5.77
2023-04-16T14:28:15.723Z,5.20
2023-04-16T14:30:43.057Z,6.30
2023-04-16T14:33:10.276Z,6.33
2023-04-16T14:35:37.362Z,5.27
2023-04-16T14:38:04.590Z,4.53
2023-04-16T14:40:31.807Z,5.50
2023-04-16T14:42:59.149Z,4.60
2023-04-16T14:45:28.868Z,5.30
2023-04-16T14:47:56.107Z,7.40
2023-04-16T14:50:23.525Z,6.03
2023-04-16T14:52:51.842Z,4.33
2023-04-16T14:55:19.232Z,5.23
2023-04-16T14:57:46.510Z,4.40
2023-04-16T15:00:18.724Z,4.60
2023-04-16T15:02:48.428Z,4.10
2023-04-16T15:05:15.870Z,4.03
2023-04-16T15:07:42.984Z,5.60
2023-04-16T15:10:10.866Z,4.90
2023-04-16T15:12:38.846Z,4.07
2023-04-16T15:15:08.255Z,3.70
2023-04-16T15:17:35.710Z,3.97
2023-04-16T15:20:05.907Z,4.00
2023-04-16T15:22:33.109Z,3.30
2023-04-16T15:25:00.324Z,3.70
2023-04-16T15:27:27.813Z,2.87
2023-04-16T15:29:55.536Z,3.03
2023-04-16T15:32:22.949Z,3.00
2023-04-16T15:34:50.299Z,2.53
2023-04-16T15:37:17.471Z,4.10
2023-04-16T15:39:44.688Z,2.27
2023-04-16T15:42:12.319Z,2.20
2023-04-16T15:44:39.525Z,2.67
2023-04-16T15:47:07.933Z,2.17
2023-04-16T15:49:36.116Z,2.03
2023-04-16T15:52:04.326Z,2.60
2023-04-16T15:54:32.071Z,2.10
2023-04-16T15:56:59.399Z,3.23
2023-04-16T15:59:27.603Z,2.63
2023-04-16T16:01:54.984Z,3.07
2023-04-16T16:04:23.401Z,4.30
2023-04-16T16:06:51.276Z,3.23
2023-04-16T16:09:25.685Z,3.50
2023-04-16T16:11:59.017Z,6.07
2023-04-16T16:14:27.041Z,3.10
2023-04-16T16:16:54.336Z,3.47
2023-04-16T16:19:21.623Z,5.47
2023-04-16T16:21:48.998Z,3.67
2023-04-16T16:24:16.092Z,4.37
2023-04-16T16:26:46.236Z,3.83
2023-04-16T16:29:13.462Z,4.37
2023-04-16T16:31:40.706Z,4.00
2023-04-16T16:34:07.826Z,3.50
2023-04-16T16:36:37.712Z,4.40
2023-04-16T16:39:05.131Z,4.67
2023-04-16T16:41:33.403Z,5.40
2023-04-16T16:44:00.600Z,4.80
2023-04-16T16:46:27.750Z,5.87
2023-04-16T16:48:54.923Z,5.90
2023-04-16T16:51:22.235Z,4.77
2023-04-16T16:53:49.423Z,4.07
2023-04-16T16:56:16.977Z,4.60
2023-04-16T16:58:44.267Z,4.93
2023-04-16T17:01:11.847Z,4.37
2023-04-16T17:03:39.117Z,4.40
2023-04-16T17:06:06.531Z,4.10
2023-04-16T17:08:33.796Z,6.00
2023-04-16T17:11:04.644Z,4.40
2023-04-16T17:13:32.847Z,5.10
2023-04-16T17:16:00.030Z,4.97
2023-04-16T17:18:28.082Z,4.97
2023-04-16T17:20:55.240Z,5.03
2023-04-16T17:23:22.470Z,5.57
2023-04-16T17:25:50.123Z,5.80
2023-04-16T17:28:17.654Z,7.40
2023-04-16T17:30:45.306Z,7.00
2023-04-16T17:33:12.665Z,9.80
2023-04-16T17:35:41.064Z,8.87
2023-04-16T17:38:08.191Z,9.37
2023-04-16T17:40:35.261Z,9.93
2023-04-16T17:43:02.421Z,15.10
2023-04-16T17:45:29.458Z,10.00
2023-04-16T17:47:56.818Z,14.97
2023-04-16T17:50:24.063Z,15.27
2023-04-16T17:52:51.267Z,20.13
2023-04-16T17:55:18.504Z,35.73
2023-04-16T17:57:45.854Z,23.33
2023-04-16T18:00:14.424Z,20.70
2023-04-16T18:02:42.027Z,24.13
2023-04-16T18:05:09.820Z,23.00
2023-04-16T18:07:37.773Z,24.93
2023-04-16T18:10:06.044Z,24.17
2023-04-16T18:12:33.782Z,26.20
2023-04-16T18:15:00.943Z,29.80
2023-04-16T18:17:28.453Z,25.00
2023-04-16T18:19:56.757Z,28.43
2023-04-16T18:22:25.661Z,29.50
2023-04-16T18:24:54.085Z,26.77
2023-04-16T18:27:21.636Z,25.20
2023-04-16T18:29:49.492Z,32.63
2023-04-16T18:32:16.923Z,30.47
2023-04-16T18:34:44.333Z,26.77
2023-04-16T18:37:11.652Z,28.70
2023-04-16T18:39:38.802Z,22.70
2023-04-16T18:42:06.431Z,21.43
2023-04-16T18:44:33.742Z,18.40
2023-04-16T18:47:01.145Z,17.40
2023-04-16T18:49:35.178Z,16.00
2023-04-16T18:52:05.687Z,17.20
2023-04-16T18:54:32.865Z,16.80
2023-04-16T18:57:02.749Z,15.00
2023-04-16T18:59:40.056Z,15.50
2023-04-16T19:02:07.699Z,11.67
2023-04-16T19:04:34.997Z,16.10
2023-04-16T19:07:02.416Z,10.90
2023-04-16T19:09:29.679Z,9.93
2023-04-16T19:11:57.598Z,8.10
2023-04-16T19:14:24.829Z,10.27
2023-04-16T19:16:52.174Z,9.00
2023-04-16T19:19:19.342Z,11.03
2023-04-16T19:21:46.414Z,9.87
2023-04-16T19:24:13.606Z,12.93
2023-04-16T19:26:40.958Z,10.53
2023-04-16T19:29:08.061Z,8.00
2023-04-16T19:31:35.341Z,7.77
2023-04-16T19:34:02.463Z,9.37
2023-04-16T19:36:29.562Z,8.17
2023-04-16T19:38:56.752Z,9.63
2023-04-16T19:41:24.104Z,9.00
2023-04-16T19:43:51.273Z,8.20
2023-04-16T19:46:18.460Z,9.80
2023-04-16T19:48:45.681Z,12.40
2023-04-16T19:51:12.736Z,9.47
2023-04-16T19:53:39.814Z,9.70
2023-04-16T19:56:06.967Z,9.50
2023-04-16T19:58:34.223Z,9.67
2023-04-16T20:01:01.411Z,13.73
2023-04-16T20:03:31.726Z,9.77
2023-04-16T20:05:59.083Z,11.10
2023-04-16T20:08:26.240Z,12.07
2023-04-16T20:10:56.441Z,13.67
2023-04-16T20:13:23.757Z,9.53
2023-04-16T20:15:54.557Z,10.83
2023-04-16T20:18:21.577Z,13.30
2023-04-16T20:20:48.727Z,10.27
2023-04-16T20:23:16.000Z,9.93
2023-04-16T20:25:43.545Z,10.47
2023-04-16T20:28:10.871Z,11.33
2023-04-16T20:30:41.592Z,10.27
2023-04-16T20:33:09.714Z,10.10
2023-04-16T20:35:37.059Z,10.10
2023-04-16T20:38:04.511Z,9.80
2023-04-16T20:40:31.921Z,8.40
2023-04-16T20:43:00.576Z,9.73
2023-04-16T20:45:38.454Z,9.50
2023-04-16T20:48:07.997Z,9.13
2023-04-16T20:50:35.187Z,8.67
2023-04-16T20:53:02.331Z,8.80
2023-04-16T20:55:29.536Z,9.07
2023-04-16T20:57:56.699Z,9.73
2023-04-16T21:00:24.087Z,9.50
2023-04-16T21:02:51.600Z,11.07
2023-04-16T21:05:21.376Z,12.33
2023-04-16T21:07:48.616Z,8.60
2023-04-16T21:10:20.115Z,10.57
2023-04-16T21:12:47.555Z,11.83
2023-04-16T21:15:14.856Z,11.23
2023-04-16T21:17:42.073Z,11.37
2023-04-16T21:20:13.710Z,11.13
2023-04-16T21:22:42.177Z,10.97
2023-04-16T21:25:09.956Z,9.90
2023-04-16T21:27:37.145Z,13.00
2023-04-16T21:30:04.954Z,10.23
2023-04-16T21:32:32.094Z,12.03
2023-04-16T21:34:59.374Z,11.43
2023-04-16T21:37:26.533Z,12.43
2023-04-16T21:39:53.704Z,16.80
2023-04-16T21:42:20.928Z,11.40
2023-04-16T21:44:48.041Z,13.97
2023-04-16T21:47:15.175Z,10.80
2023-04-16T21:49:42.443Z,11.40
2023-04-16T21:52:18.325Z,15.40
2023-04-16T21:54:46.792Z,11.33
2023-04-16T21:57:14.040Z,13.80
2023-04-16T21:59:41.458Z,11.40
2023-04-16T22:02:08.828Z,11.60
2023-04-16T22:04:39.444Z,14.40
2023-04-16T22:07:11.825Z,14.10
2023-04-16T22:09:40.413Z,13.57
2023-04-16T22:12:10.272Z,12.13
2023-04-16T22:14:44.001Z,15.17
2023-04-16T22:17:15.122Z,13.37
2023-04-16T22:19:42.467Z,14.70
2023-04-16T22:22:09.642Z,12.50
2023-04-16T22:24:36.772Z,13.77
2023-04-16T22:27:04.277Z,13.73
2023-04-16T22:29:31.430Z,13.33
2023-04-16T22:32:00.725Z,12.13
2023-04-16T22:34:27.933Z,13.80
2023-04-16T22:36:55.054Z,14.47
2023-04-16T22:39:22.795Z,14.73
2023-04-16T22:41:49.987Z,15.17
2023-04-16T22:44:17.087Z,19.23
2023-04-16T22:46:45.466Z,15.30
2023-04-16T22:49:13.267Z,16.60
2023-04-16T22:51:40.744Z,16.37
2023-04-16T22:54:09.198Z,16.60
2023-04-16T22:56:36.823Z,16.10
2023-04-16T22:59:03.927Z,16.90
2023-04-16T23:01:31.325Z,17.07
2023-04-16T23:03:58.593Z,18.37
2023-04-16T23:06:27.175Z,17.07
2023-04-16T23:08:54.347Z,16.80
2023-04-16T23:11:22.096Z,17.50
2023-04-16T23:13:49.250Z,16.30
2023-04-16T23:16:16.424Z,19.80
2023-04-16T23:18:43.690Z,17.57
2023-04-16T23:21:11.020Z,16.53
2023-04-16T23:23:38.148Z,17.23
2023-04-16T23:26:05.471Z,17.60
2023-04-16T23:28:32.671Z,16.43
2023-04-16T23:30:59.812Z,16.30
2023-04-16T23:33:27.258Z,17.17
2023-04-16T23:35:54.323Z,14.03
2023-04-16T23:38:21.530Z,17.70
2023-04-16T23:40:48.737Z,15.50
2023-04-16T23:43:16.176Z,17.30
2023-04-16T23:45:43.392Z,16.00
2023-04-16T23:48:10.652Z,17.07
2023-04-16T23:50:37.802Z,14.17
2023-04-16T23:53:04.908Z,15.70
2023-04-16T23:55:32.074Z,15.53
2023-04-16T23:57:59.234Z,14.53
